createdAt,value
2023-04-15T00:03:17.142Z,94318.13
2023-04-15T00:08:19.880Z,94325.41
2023-04-15T00:13:21.875Z,94342.84
2023-04-15T00:18:25.517Z,94324.28
2023-04-15T00:23:28.192Z,94325.41
2023-04-15T00:28:34.214Z,94328.53
2023-04-15T00:33:41.116Z,94323.44
2023-04-15T00:38:45.978Z,94328.44
2023-04-15T00:43:49.072Z,94325.75
2023-04-15T00:48:52.298Z,94322.72
2023-04-15T00:53:54.483Z,94317.50
2023-04-15T00:58:57.594Z,94321.28
2023-04-15T01:04:00.593Z,94320.94
2023-04-15T01:09:03.571Z,94320.59
2023-04-15T01:14:07.656Z,94316.34
2023-04-15T01:19:13.772Z,94323.84
2023-04-15T01:24:18.524Z,94319.66
2023-04-15T01:29:20.871Z,94320.31
2023-04-15T01:34:23.577Z,94310.72
2023-04-15T01:39:29.292Z,94306.25
2023-04-15T01:44:32.389Z,94304.69
2023-04-15T01:49:35.209Z,94307.13
2023-04-15T01:54:39.031Z,94310.44
2023-04-15T01:59:46.262Z,94317.25
2023-04-15T02:04:48.466Z,94318.59
2023-04-15T02:09:51.965Z,94313.75
2023-04-15T02:14:54.394Z,94332.03
2023-04-15T02:19:57.971Z,94344.28
2023-04-15T02:25:00.569Z,94338.22
2023-04-15T02:30:03.805Z,94329.41
2023-04-15T02:35:08.073Z,94330.53
2023-04-15T02:40:13.904Z,94333.28
2023-04-15T02:45:16.527Z,94328.16
2023-04-15T02:50:20.256Z,94325.47
2023-04-15T02:55:22.822Z,94313.41
2023-04-15T03:00:25.615Z,94318.75
2023-04-15T03:05:27.723Z,94326.84
2023-04-15T03:10:29.967Z,94334.28
2023-04-15T03:15:33.554Z,94331.34
2023-04-15T03:20:36.805Z,94333.13
2023-04-15T03:25:39.105Z,94333.63
2023-04-15T03:30:47.079Z,94341.50
2023-04-15T03:35:49.471Z,94343.13
2023-04-15T03:40:51.793Z,94340.00
2023-04-15T03:45:54.211Z,94345.53
2023-04-15T03:50:57.073Z,94346.50
2023-04-15T03:55:59.236Z,94356.25
2023-04-15T04:01:01.734Z,94362.69
2023-04-15T04:06:03.875Z,94362.56
2023-04-15T04:11:06.844Z,94362.91
2023-04-15T04:16:09.132Z,94361.94
2023-04-15T04:21:13.986Z,94357.91
2023-04-15T04:26:17.810Z,94357.25
2023-04-15T04:31:20.229Z,94348.63
2023-04-15T04:36:22.782Z,94355.72
2023-04-15T04:41:24.913Z,94353.03
2023-04-15T04:46:27.700Z,94359.94
2023-04-15T04:51:29.950Z,94358.56
2023-04-15T04:56:34.527Z,94361.69
2023-04-15T05:01:39.285Z,94361.38
2023-04-15T05:06:41.991Z,94367.03
2023-04-15T05:11:44.646Z,94368.31
2023-04-15T05:16:46.809Z,94380.88
2023-04-15T05:21:50.754Z,94381.06
2023-04-15T05:26:53.050Z,94386.88
2023-04-15T05:31:55.355Z,94385.94
2023-04-15T05:36:57.391Z,94395.97
2023-04-15T05:42:00.234Z,94392.19
2023-04-15T05:47:03.821Z,94389.88
2023-04-15T05:52:08.486Z,94394.13
2023-04-15T05:57:13.592Z,94388.94
2023-04-15T06:02:16.728Z,94391.59
2023-04-15T06:07:19.015Z,94398.00
2023-04-15T06:12:21.449Z,94405.84
2023-04-15T06:17:23.875Z,94416.34
2023-04-15T06:22:26.050Z,94421.34
2023-04-15T06:27:28.368Z,94435.13
2023-04-15T06:32:32.298Z,94423.19
2023-04-15T06:37:37.054Z,94430.72
2023-04-15T06:42:39.190Z,94434.59
2023-04-15T06:47:42.103Z,94430.16
2023-04-15T06:52:46.717Z,94444.94
2023-04-15T06:57:48.955Z,94449.63
2023-04-15T07:02:51.549Z,94458.72
2023-04-15T07:07:57.494Z,94456.75
2023-04-15T07:12:59.580Z,94469.16
2023-04-15T07:18:02.049Z,94472.84
2023-04-15T07:23:04.478Z,94459.22
2023-04-15T07:28:06.575Z,94451.84
2023-04-15T07:33:08.580Z,94468.53
2023-04-15T07:38:13.218Z,94472.13
2023-04-15T07:43:16.018Z,94501.84
2023-04-15T07:48:18.209Z,94516.25
2023-04-15T07:53:21.026Z,94523.00
2023-04-15T07:58:23.400Z,94509.16
2023-04-15T08:03:26.498Z,94509.28
2023-04-15T08:08:31.609Z,94513.88
2023-04-15T08:13:35.846Z,94523.19
2023-04-15T08:18:38.050Z,94519.56
2023-04-15T08:23:40.835Z,94513.91
2023-04-15T08:28:44.428Z,94519.41
2023-04-15T08:33:47.822Z,94524.22
2023-04-15T08:38:50.201Z,94520.72
2023-04-15T08:43:55.772Z,94533.13
2023-04-15T08:48:58.870Z,94528.13
2023-04-15T08:54:02.748Z,94539.63
2023-04-15T08:59:05.699Z,94525.88
2023-04-15T09:04:08.722Z,94515.97
2023-04-15T09:09:20.383Z,94527.06
2023-04-15T09:14:23.348Z,94538.19
2023-04-15T09:19:26.038Z,94523.47
2023-04-15T09:24:34.626Z,94521.69
2023-04-15T09:29:37.589Z,94533.22
2023-04-15T09:34:40.049Z,94533.34
2023-04-15T09:39:50.483Z,94523.03
2023-04-15T09:44:56.958Z,94521.78
2023-04-15T09:50:02.763Z,94535.03
2023-04-15T09:55:11.184Z,94546.69
2023-04-15T10:00:16.183Z,94542.06
2023-04-15T10:05:20.255Z,94549.84
2023-04-15T10:10:25.577Z,94537.00
2023-04-15T10:15:31.559Z,94546.72
2023-04-15T10:20:34.716Z,94538.53
2023-04-15T10:25:37.944Z,94529.53
2023-04-15T10:30:40.617Z,94525.88
2023-04-15T10:35:43.430Z,94524.44
2023-04-15T10:40:46.024Z,94518.81
2023-04-15T10:45:51.793Z,94506.25
2023-04-15T10:50:58.058Z,94507.56
2023-04-15T10:56:00.248Z,94508.16
2023-04-15T11:01:05.303Z,94500.56
2023-04-15T11:06:08.021Z,94493.25
2023-04-15T11:11:14.232Z,94497.50
2023-04-15T11:16:16.788Z,94497.94
2023-04-15T11:21:18.760Z,94495.41
2023-04-15T11:26:27.187Z,94500.00
2023-04-15T11:31:29.677Z,94488.97
2023-04-15T11:36:32.424Z,94485.09
2023-04-15T11:41:36.514Z,94485.78
2023-04-15T11:46:40.235Z,94472.22
2023-04-15T11:51:43.534Z,94470.09
2023-04-15T11:56:51.510Z,94457.88
2023-04-15T12:01:54.429Z,94459.59
2023-04-15T12:07:06.370Z,94458.19
2023-04-15T12:12:08.631Z,94441.09
2023-04-15T12:17:11.887Z,94447.69
2023-04-15T12:22:16.528Z,94439.56
2023-04-15T12:27:21.860Z,94438.78
2023-04-15T12:32:25.599Z,94433.78
2023-04-15T12:37:27.871Z,94420.94
2023-04-15T12:42:30.272Z,94431.81
2023-04-15T12:47:32.744Z,94426.38
2023-04-15T12:52:35.017Z,94422.41
2023-04-15T12:57:38.691Z,94413.09
2023-04-15T13:02:41.318Z,94400.38
2023-04-15T13:07:44.301Z,94410.84
2023-04-15T13:12:47.579Z,94397.28
2023-04-15T13:17:50.794Z,94400.00
2023-04-15T13:22:53.524Z,94396.50
2023-04-15T13:27:56.065Z,94379.44
2023-04-15T13:32:59.350Z,94387.19
2023-04-15T13:38:01.722Z,94376.75
2023-04-15T13:43:04.366Z,94380.22
2023-04-15T13:48:06.577Z,94374.78
2023-04-15T13:53:08.651Z,94372.06
2023-04-15T13:58:11.501Z,94365.88
2023-04-15T14:03:13.676Z,94369.34
2023-04-15T14:08:15.872Z,94367.03
2023-04-15T14:13:19.683Z,94358.09
2023-04-15T14:18:21.958Z,94357.72
2023-04-15T14:23:24.248Z,94363.16
2023-04-15T14:28:26.260Z,94356.16
2023-04-15T14:33:28.364Z,94356.94
2023-04-15T14:38:30.769Z,94348.00
2023-04-15T14:43:33.470Z,94348.38
2023-04-15T14:48:35.881Z,94348.00
2023-04-15T14:53:38.246Z,94345.69
2023-04-15T14:58:40.500Z,94342.97
2023-04-15T15:03:44.172Z,94337.88
2023-04-15T15:08:51.948Z,94336.31
2023-04-15T15:13:55.400Z,94338.25
2023-04-15T15:18:57.856Z,94337.16
2023-04-15T15:24:05.813Z,94343.38
2023-04-15T15:29:08.326Z,94334.81
2023-04-15T15:34:11.066Z,94334.84
2023-04-15T15:39:18.008Z,94350.75
2023-04-15T15:44:20.207Z,94343.38
2023-04-15T15:49:26.018Z,94349.59
2023-04-15T15:54:28.167Z,94360.47
2023-04-15T15:59:30.644Z,94359.28
2023-04-15T16:04:33.032Z,94359.69
2023-04-15T16:09:35.606Z,94367.38
2023-04-15T16:14:38.556Z,94366.63
2023-04-15T16:19:41.206Z,94372.75
2023-04-15T16:25:08.822Z,94365.03
2023-04-15T16:30:11.905Z,94370.84
2023-04-15T16:35:17.002Z,94367.75
2023-04-15T16:40:19.636Z,94378.97
2023-04-15T16:45:27.060Z,94390.22
2023-04-15T16:50:32.296Z,94384.81
2023-04-15T16:55:34.601Z,94384.06
2023-04-15T17:00:37.293Z,94389.06
2023-04-15T17:05:39.810Z,94390.25
2023-04-15T17:10:41.927Z,94391.03
2023-04-15T17:15:44.267Z,94398.38
2023-04-15T17:20:50.958Z,94403.75
2023-04-15T17:25:54.398Z,94395.22
2023-04-15T17:30:57.310Z,94396.75
2023-04-15T17:35:59.507Z,94404.03
2023-04-15T17:41:02.810Z,94414.38
2023-04-15T17:46:07.482Z,94406.16
2023-04-15T17:51:09.876Z,94405.66
2023-04-15T17:56:13.793Z,94412.72
2023-04-15T18:01:18.904Z,94398.81
2023-04-15T18:06:23.489Z,94397.56
2023-04-15T18:11:25.877Z,94393.25
2023-04-15T18:16:28.402Z,94391.69
2023-04-15T18:21:32.133Z,94404.03
2023-04-15T18:26:37.754Z,94398.94
2023-04-15T18:31:43.972Z,94391.56
2023-04-15T18:36:46.951Z,94396.94
2023-04-15T18:41:50.778Z,94393.34
2023-04-15T18:46:53.699Z,94406.06
2023-04-15T18:51:56.076Z,94405.16
2023-04-15T18:56:58.294Z,94408.19
2023-04-15T19:02:01.358Z,94412.72
2023-04-15T19:07:03.753Z,94418.78
2023-04-15T19:12:06.350Z,94412.50
2023-04-15T19:17:08.503Z,94423.19
2023-04-15T19:22:10.696Z,94428.53
2023-04-15T19:27:19.996Z,94427.66
2023-04-15T19:32:22.270Z,94427.25
2023-04-15T19:37:24.609Z,94436.00
2023-04-15T19:42:27.015Z,94432.75
2023-04-15T19:47:29.052Z,94445.75
2023-04-15T19:52:31.806Z,94454.13
2023-04-15T19:57:35.023Z,94459.47
2023-04-15T20:02:37.320Z,94460.09
2023-04-15T20:07:42.850Z,94474.69
2023-04-15T20:12:49.894Z,94475.81
2023-04-15T20:17:55.051Z,94486.00
2023-04-15T20:22:57.429Z,94494.03
2023-04-15T20:28:00.998Z,94508.25
2023-04-15T20:33:05.476Z,94522.34
2023-04-15T20:38:08.244Z,94541.31
2023-04-15T20:43:10.836Z,94550.53
2023-04-15T20:48:14.304Z,94539.69
2023-04-15T20:53:17.761Z,94550.81
2023-04-15T20:58:20.152Z,94549.50
2023-04-15T21:03:22.694Z,94553.56
2023-04-15T21:08:32.344Z,94556.66
2023-04-15T21:13:43.679Z,94559.28
2023-04-15T21:18:48.616Z,94557.88
2023-04-15T21:23:51.389Z,94561.41
2023-04-15T21:28:57.589Z,94559.06
2023-04-15T21:33:59.768Z,94553.47
2023-04-15T21:39:01.845Z,94570.75
2023-04-15T21:44:04.404Z,94574.69
2023-04-15T21:49:07.192Z,94560.47
2023-04-15T21:54:09.968Z,94569.59
2023-04-15T21:59:12.297Z,94569.13
2023-04-15T22:04:14.535Z,94563.41
2023-04-15T22:09:16.988Z,94544.50
2023-04-15T22:14:25.300Z,94554.38
2023-04-15T22:19:27.529Z,94557.78
2023-04-15T22:24:39.427Z,94570.59
2023-04-15T22:29:42.793Z,94564.59
2023-04-15T22:34:45.087Z,94562.94
2023-04-15T22:39:47.854Z,94559.13
2023-04-15T22:44:50.881Z,94546.38
2023-04-15T22:49:55.805Z,94561.03
2023-04-15T22:54:58.440Z,94561.03
2023-04-15T23:00:03.137Z,94567.91
2023-04-15T23:05:12.470Z,94566.03
2023-04-15T23:10:16.259Z,94567.63
2023-04-15T23:15:20.793Z,94565.44
2023-04-15T23:20:25.761Z,94563.25
2023-04-15T23:25:28.168Z,94564.19
2023-04-15T23:30:32.292Z,94568.34
2023-04-15T23:35:34.907Z,94579.34
2023-04-15T23:40:37.054Z,94580.38
2023-04-15T23:45:40.874Z,94586.22
2023-04-15T23:50:43.401Z,94579.13
2023-04-15T23:55:49.123Z,94576.97
